Have a Safe July 4th! 

Flight Track Log - Related Links

Times and Time Zones

All times are in EDT time to prevent confusion due to time zone crossing. See the FLG3729 flight status page for this flight to view local times or setup timezone preferences in your user account.

Time Position Orientation Groundspeed Altitude Reporting Facility
EDT Latitude Longitude Course Direction KTS MPH feet Rate Location/Type
Mon 10:24:25 AM 42.2328 -83.3483 359° North 169 194 1,300  Level Cleveland Center
Mon 10:25:20 AM 42.2786 -83.3492 359° North 211 243 3,000 1,800 Climbing Cleveland Center
Mon 10:26:15 AM 42.3283 -83.3844 332° Northwest 272 313 4,600 2,311 Climbing Cleveland Center
Mon 10:27:22 AM 42.3775 -83.4789 305° West 294 338 7,700 2,631 Climbing Cleveland Center
Mon 10:28:25 AM 42.3358 -83.5561 234° Southwest 286 329 10,300 1,872 Climbing Cleveland Center
Mon 10:29:27 AM 42.2631 -83.6197 213° Southwest 331 381 11,600 1,984 Climbing Cleveland Center
Mon 10:30:29 AM 42.1467 -83.6131 178° South 356 410 14,400 2,419 Climbing Cleveland Center
Mon 10:31:31 AM 42.0478 -83.6031 176° South 358 412 16,600 2,129 Climbing Cleveland Center
Mon 10:32:33 AM 41.9461 -83.5942 176° South 364 419 18,800 1,790 Climbing Cleveland Center
Mon 10:33:35 AM 41.8425 -83.5844 176° South 370 426 20,300 1,548 Climbing Cleveland Center
Mon 10:34:37 AM 41.7372 -83.5950 184° South 382 440 22,000 1,742 Climbing Cleveland Center
Mon 10:35:39 AM 41.6228 -83.6697 206° Southwest 382 440 23,900 1,548 Climbing Cleveland Center
Mon 10:36:41 AM 41.5242 -83.7328 206° Southwest 391 450 25,200 1,452 Climbing Cleveland Center
Mon 10:37:43 AM 41.4239 -83.7969 206° Southwest 393 452 26,900 1,248 Climbing Cleveland Center
Mon 10:38:46 AM 41.3239 -83.8608 206° Southwest 397 457 27,800 960 Climbing Cleveland Center
Mon 10:39:48 AM 41.2053 -83.9381 206° Southwest 411 473 28,900 1,500 Climbing Cleveland Center
Mon 10:40:50 AM 41.1039 -84.0017 205° Southwest 405 466 30,900 1,500 Climbing Cleveland Center
Mon 10:41:52 AM 41.0050 -84.0636 205° Southwest 396 456 32,000 532 Climbing Cleveland Center
Mon 10:42:54 AM 40.9036 -84.1283 206° Southwest 399 459 32,000  Level Cleveland Center
Mon 10:43:46 AM 40.8111 -84.1881 206° Southwest 401 461 32,000  Level Indianapolis Center
Mon 10:44:48 AM 40.7103 -84.2506 205° Southwest 402 463 32,000  Level Indianapolis Center
Mon 10:45:50 AM 40.6089 -84.3136 205° Southwest 402 463 32,000  Level Indianapolis Center
Mon 10:46:52 AM 40.5089 -84.3767 206° Southwest 402 463 32,000  Level Indianapolis Center
Mon 10:47:54 AM 40.3883 -84.4508 205° Southwest 402 463 32,000  Level Indianapolis Center
Mon 10:48:56 AM 40.2892 -84.5131 206° Southwest 401 461 32,000  Level Indianapolis Center
Mon 10:49:58 AM 40.1897 -84.5739 205° Southwest 398 458 32,000  Level Indianapolis Center
Mon 10:51:00 AM 40.0914 -84.6344 205° Southwest 397 457 32,000  Level Indianapolis Center
Mon 10:52:02 AM 39.9944 -84.6942 205° Southwest 390 449 32,000  Level Indianapolis Center
Mon 10:53:04 AM 39.8992 -84.7528 205° Southwest 385 443 32,000  Level Indianapolis Center
Mon 10:54:06 AM 39.7808 -84.8244 205° Southwest 388 447 32,000  Level Indianapolis Center
Mon 10:55:08 AM 39.7061 -84.9231 225° Southwest 390 449 32,000  Level Indianapolis Center
Mon 10:56:09 AM 39.6406 -85.0306 232° Southwest 385 443 32,000  Level Indianapolis Center
Mon 10:58:13 AM 39.5131 -85.2406 232° Southwest 376 433 32,000  Level Indianapolis Center
Mon 10:59:15 AM 39.4500 -85.3472 233° Southwest 376 433 32,000  Level Indianapolis Center
Mon 11:00:17 AM 39.3728 -85.4731 232° Southwest 376 433 32,000  Level Indianapolis Center
Mon 11:01:19 AM 39.3097 -85.5775 232° Southwest 376 433 32,000  Level Indianapolis Center
Mon 11:02:21 AM 39.2431 -85.6844 231° Southwest 376 433 32,000  Level Indianapolis Center
Mon 11:03:23 AM 39.1769 -85.7914 231° Southwest 376 433 32,000  Level Indianapolis Center
Mon 11:04:25 AM 39.1108 -85.8989 232° Southwest 377 434 32,000  Level Indianapolis Center
Mon 11:05:27 AM 39.0447 -86.0072 232° Southwest 381 438 32,000  Level Indianapolis Center
Mon 11:06:29 AM 38.9656 -86.1361 232° Southwest 381 438 32,000  Level Indianapolis Center
Mon 11:07:31 AM 38.8989 -86.2425 231° Southwest 382 440 32,000  Level Indianapolis Center
Mon 11:08:33 AM 38.8339 -86.3481 232° Southwest 380 437 32,000  Level Indianapolis Center
Mon 11:09:35 AM 38.7678 -86.4525 231° Southwest 380 437 32,000  Level Indianapolis Center
Mon 11:10:37 AM 38.7031 -86.5561 231° Southwest 376 433 32,000  Level Indianapolis Center
Mon 11:11:39 AM 38.6375 -86.6592 231° Southwest 374 430 32,000  Level Indianapolis Center
Mon 11:12:40 AM 38.5706 -86.7639 231° Southwest 375 432 32,000  Level Indianapolis Center
Mon 11:13:42 AM 38.4892 -86.8922 231° Southwest 383 441 32,000  Level Indianapolis Center
Mon 11:14:44 AM 38.4219 -86.9992 231° Southwest 384 442 32,000  Level Indianapolis Center
Mon 11:15:46 AM 38.3508 -87.1100 231° Southwest 387 445 32,000  Level Indianapolis Center
Mon 11:16:48 AM 38.2819 -87.2192 231° Southwest 388 447 32,000  Level Indianapolis Center
Mon 11:17:49 AM 38.2208 -87.3125 230° Southwest 388 447 32,000  Level Indianapolis Center
Mon 11:18:51 AM 38.1378 -87.4408 231° Southwest 388 447 32,000  Level Indianapolis Center
Mon 11:19:53 AM 38.0675 -87.5481 230° Southwest 391 450 32,000  Level Indianapolis Center
Mon 11:20:55 AM 37.9967 -87.6583 231° Southwest 397 457 32,000  Level Indianapolis Center
Mon 11:21:57 AM 37.9208 -87.7656 228° Southwest 403 464 32,000  Level Indianapolis Center
Mon 11:22:58 AM 37.8158 -87.8308 206° Southwest 413 475 32,000  Level Indianapolis Center
Mon 11:24:00 AM 37.7008 -87.9025 206° Southwest 413 475 32,000  Level Indianapolis Center
Mon 11:25:02 AM 37.5967 -87.9658 206° Southwest 413 475 32,000  Level Indianapolis Center
Mon 11:26:03 AM 37.4928 -88.0297 206° Southwest 413 475 32,000  Level Indianapolis Center
Mon 11:27:05 AM 37.3858 -88.0939 205° Southwest 418 481 32,000  Level Indianapolis Center
Mon 11:28:07 AM 37.2769 -88.1594 206° Southwest 425 489 32,000  Level Indianapolis Center
Mon 11:29:08 AM 37.1681 -88.2244 205° Southwest 426 490 32,000  Level Indianapolis Center
Mon 11:30:10 AM 37.0586 -88.2919 206° Southwest 431 496 32,000  Level Indianapolis Center
Mon 11:31:12 AM 36.9481 -88.3569 205° Southwest 432 497 32,000  Level Indianapolis Center
Mon 11:32:14 AM 36.8211 -88.4336 206° Southwest 432 497 32,000 -293 Level Indianapolis Center
Mon 11:33:15 AM 36.7089 -88.4986 205° Southwest 434 499 31,400 -1,268 Descending Indianapolis Center
Mon 11:34:17 AM 36.6000 -88.5633 206° Southwest 434 499 29,400 -1,830 Descending Indianapolis Center
Mon 11:35:36 AM 36.4697 -88.6406 205° Southwest 428 493 27,100 -1,714 Descending Memphis Center
Mon 11:36:37 AM 36.3636 -88.7014 205° Southwest 423 487 25,400 -1,512 Descending Memphis Center
Mon 11:37:39 AM 36.2589 -88.7633 206° Southwest 418 481 24,000 -1,610 Descending Memphis Center
Mon 11:38:40 AM 36.1558 -88.8228 205° Southwest 410 472 22,100 -1,854 Descending Memphis Center
Mon 11:39:42 AM 36.0583 -88.8792 205° Southwest 393 452 20,200 -2,000 Descending Memphis Center
Mon 11:40:43 AM 35.9458 -88.9461 206° Southwest 377 434 18,000 -1,951 Descending Memphis Center
Mon 11:41:45 AM 35.8525 -89.0000 205° Southwest 374 430 16,200 -1,756 Descending Memphis Center
Mon 11:42:46 AM 35.7608 -89.0525 205° Southwest 366 421 14,400 -1,024 Descending Memphis Center
Mon 11:43:48 AM 35.6906 -89.1222 219° Southwest 336 387 14,100 -1,024 Descending Memphis Center
Mon 11:44:49 AM 35.6300 -89.2019 227° Southwest 324 373 12,300 -1,707 Descending Memphis Center
Mon 11:45:51 AM 35.5700 -89.2803 227° Southwest 322 371 10,600 -1,122 Descending Memphis Center
Mon 11:46:52 AM 35.5228 -89.3553 232° Southwest 298 343 10,000 -488 Descending Memphis Center
Mon 11:47:54 AM 35.4850 -89.4203 234° Southwest 249 287 9,600 -878 Descending Memphis Center
Mon 11:48:55 AM 35.4594 -89.4961 248° West 242 278 8,200 -1,707 Descending Memphis Center
Mon 11:49:57 AM 35.4322 -89.5783 248° West 225 259 6,100 -1,512 Descending Memphis Center
Mon 11:50:58 AM 35.4083 -89.6444 246° West 219 252 5,100 -488 Descending Memphis Center
Mon 11:52:00 AM 35.3869 -89.7089 248° West 210 242 5,100 -293 Level Memphis Center
Mon 11:53:01 AM 35.3653 -89.7750 248° West 210 242 4,500 -488 Descending Memphis Center
Mon 11:54:03 AM 35.3444 -89.8389 248° West 209 241 4,100 -195 Descending Memphis Center
Mon 11:55:04 AM 35.3233 -89.9031 248° West 208 239 4,100 -492 Level Memphis Center
Mon 11:56:05 AM 35.2919 -89.9625 237° Southwest 208 239 3,100 -829 Descending Memphis Center
Mon 11:57:07 AM 35.2264 -89.9794 192° South 210 242 2,400 -537 Descending Memphis Center
Mon 11:58:08 AM 35.1761 -89.9792 180° South 197 227 2,000 -195 Descending Memphis Center
Mon 11:59:10 AM 35.1417 -89.9786 179° South 152 175 2,000 -339 Level Memphis Center
Mon 12:00:12 PM 35.1053 -89.9775 179° South 136 157 1,300 -629 Descending Memphis Center
Mon 12:01:14 PM 35.0672 -89.9761 178° South 135 155 700 -581 Descending Memphis Center
Mon 12:03:00 PM 35.0424 -89.9767 180° South  Level Estimated

Login

Don't have an account? Register now (free) for customized features, flight alerts, and more!